Impacts TAF Board INFO
FOR SITUATIONAL AWARENESS. NOT TO BE USED FOR FLIGHT PLANNING PURPOSES.
IDs:

KFLL - Ft Lauderdale-Hollyw, FL, US

Issued at 0536 UTC 24 Nov 2017
Updated at 0717 UTC 24 Nov 2017
Potential Impact None Slight Moderate High
Time0653Z 24/08Z 24/09Z 24/10Z 24/11Z 24/12Z 24/13Z 24/14Z 24/15Z 24/16Z 24/17Z 24/18Z 24/19Z 24/20Z>>
Type OBS PRVL PRVL PRVL PRVL PRVL PRVL PRVL PRVL PRVL PRVL PRVL PRVL PRVL
VIS 10 >6 >6 >6 >6 >6 >6 >6 >6 >6 >6 >6 >6 >6
CIG 200 200 100 100 100 100 100 100 70 70 70 70 70 --
Cover BKN BKN OVC OVC OVC OVC OVC OVC BKN BKN BKN BKN BKN SCT
FltCat VFR VFR VFR VFR VFR VFR VFR VFR VFR VFR VFR VFR VFR VFR
WX -- -- VCSH VCSH VCSH VCSH VCSH VCSH -- -- -- -- -- --
WDir 290 230 240 240 240 240 240 240 220 220 220 220 220 VRB
WSpd 4 3 2 2 2 2 2 2 10 10 10 10 10 4
WGst -- -- -- -- -- -- -- -- -- -- -- -- -- --

Raw TAF
KFLL 240536Z 2406/2512 23003KT P6SM FEW030 BKN200
  FM240900 24002KT P6SM VCSH OVC100
  FM241500 22010KT P6SM SCT035 BKN070
  FM242000 VRB04KT P6SM FEW040 SCT080


Raw METAR
KFLL 240653Z 29004KT 10SM FEW029 BKN200 23/22 A2983 RMK AO2 SLP100 T02280222
KFLL 240553Z 27005KT 10SM FEW030 OVC200 23/22 A2983 RMK AO2 SLP101 T02280222 10239 20228 55004
KFLL 240453Z 23003KT 10SM FEW030 FEW050 OVC200 23/23 A2981 RMK AO2 SLP094 T02330228 402780222

METAR Board
Radar Display
Forecast Discussion

FOR SITUATIONAL AWARENESS. NOT TO BE USED FOR FLIGHT PLANNING PURPOSES.